sensor_id;sensor_type;location;lat;lon;timestamp;P1;durP1;ratioP1;P2;durP2;ratioP2
25559;SDS011;13450;49.374;8.584;2022-12-17T00:02:17;14.83;;;6.13;;
25559;SDS011;13450;49.374;8.584;2022-12-17T00:05:04;16.15;;;5.60;;
25559;SDS011;13450;49.374;8.584;2022-12-17T00:07:54;13.90;;;5.97;;
25559;SDS011;13450;49.374;8.584;2022-12-17T00:10:42;13.15;;;5.97;;
25559;SDS011;13450;49.374;8.584;2022-12-17T00:13:29;11.88;;;5.00;;
25559;SDS011;13450;49.374;8.584;2022-12-17T00:16:13;14.80;;;5.10;;
25559;SDS011;13450;49.374;8.584;2022-12-17T00:18:57;15.07;;;5.65;;
25559;SDS011;13450;49.374;8.584;2022-12-17T00:21:41;13.60;;;5.90;;
25559;SDS011;13450;49.374;8.584;2022-12-17T00:24:26;17.03;;;6.30;;
25559;SDS011;13450;49.374;8.584;2022-12-17T00:27:10;14.52;;;6.47;;
25559;SDS011;13450;49.374;8.584;2022-12-17T00:29:54;15.07;;;5.60;;
25559;SDS011;13450;49.374;8.584;2022-12-17T00:32:38;16.40;;;6.23;;
25559;SDS011;13450;49.374;8.584;2022-12-17T00:35:23;18.17;;;6.23;;
25559;SDS011;13450;49.374;8.584;2022-12-17T00:38:12;17.77;;;6.47;;
25559;SDS011;13450;49.374;8.584;2022-12-17T00:40:57;12.50;;;5.22;;
25559;SDS011;13450;49.374;8.584;2022-12-17T00:43:41;15.70;;;5.78;;
25559;SDS011;13450;49.374;8.584;2022-12-17T00:46:25;17.13;;;6.50;;
25559;SDS011;13450;49.374;8.584;2022-12-17T00:49:09;17.77;;;6.17;;
25559;SDS011;13450;49.374;8.584;2022-12-17T00:51:53;15.37;;;6.53;;
25559;SDS011;13450;49.374;8.584;2022-12-17T00:54:37;13.60;;;5.87;;
25559;SDS011;13450;49.374;8.584;2022-12-17T00:57:21;18.57;;;7.03;;
25559;SDS011;13450;49.374;8.584;2022-12-17T01:00:05;23.27;;;7.25;;
25559;SDS011;13450;49.374;8.584;2022-12-17T01:02:50;22.67;;;7.90;;
25559;SDS011;13450;49.374;8.584;2022-12-17T01:05:34;20.43;;;6.93;;
25559;SDS011;13450;49.374;8.584;2022-12-17T01:08:17;18.48;;;7.25;;
25559;SDS011;13450;49.374;8.584;2022-12-17T01:11:02;18.57;;;7.27;;
25559;SDS011;13450;49.374;8.584;2022-12-17T01:13:49;16.37;;;6.47;;
25559;SDS011;13450;49.374;8.584;2022-12-17T01:16:32;18.27;;;6.20;;
25559;SDS011;13450;49.374;8.584;2022-12-17T01:19:17;16.15;;;5.55;;
25559;SDS011;13450;49.374;8.584;2022-12-17T01:22:00;11.47;;;5.03;;
25559;SDS011;13450;49.374;8.584;2022-12-17T01:24:45;17.93;;;5.03;;
25559;SDS011;13450;49.374;8.584;2022-12-17T01:27:29;14.97;;;5.80;;
25559;SDS011;13450;49.374;8.584;2022-12-17T01:30:12;14.80;;;5.93;;
25559;SDS011;13450;49.374;8.584;2022-12-17T01:33:00;16.00;;;5.87;;
25559;SDS011;13450;49.374;8.584;2022-12-17T01:35:48;11.97;;;4.73;;
25559;SDS011;13450;49.374;8.584;2022-12-17T01:38:32;21.13;;;6.97;;
25559;SDS011;13450;49.374;8.584;2022-12-17T01:41:17;21.20;;;7.17;;
25559;SDS011;13450;49.374;8.584;2022-12-17T01:47:24;15.10;;;5.73;;
25559;SDS011;13450;49.374;8.584;2022-12-17T01:50:10;17.87;;;6.30;;
25559;SDS011;13450;49.374;8.584;2022-12-17T01:52:56;17.70;;;6.27;;
25559;SDS011;13450;49.374;8.584;2022-12-17T01:55:43;15.37;;;5.83;;
25559;SDS011;13450;49.374;8.584;2022-12-17T01:58:28;14.07;;;5.17;;
25559;SDS011;13450;49.374;8.584;2022-12-17T02:01:24;16.50;;;5.70;;
25559;SDS011;13450;49.374;8.584;2022-12-17T02:04:08;11.13;;;5.93;;
25559;SDS011;13450;49.374;8.584;2022-12-17T02:07:08;22.10;;;7.33;;
25559;SDS011;13450;49.374;8.584;2022-12-17T02:10:01;19.23;;;7.20;;
25559;SDS011;13450;49.374;8.584;2022-12-17T02:12:58;18.00;;;6.45;;
25559;SDS011;13450;49.374;8.584;2022-12-17T02:16:08;17.27;;;6.30;;
25559;SDS011;13450;49.374;8.584;2022-12-17T02:19:22;14.07;;;4.93;;
25559;SDS011;13450;49.374;8.584;2022-12-17T02:22:23;15.07;;;6.63;;
25559;SDS011;13450;49.374;8.584;2022-12-17T02:25:24;16.57;;;6.17;;
25559;SDS011;13450;49.374;8.584;2022-12-17T02:28:22;27.67;;;7.63;;
25559;SDS011;13450;49.374;8.584;2022-12-17T02:31:08;18.50;;;6.17;;
25559;SDS011;13450;49.374;8.584;2022-12-17T02:33:52;16.73;;;7.13;;
25559;SDS011;13450;49.374;8.584;2022-12-17T02:36:37;17.23;;;6.47;;
25559;SDS011;13450;49.374;8.584;2022-12-17T02:39:24;16.53;;;6.63;;
25559;SDS011;13450;49.374;8.584;2022-12-17T02:42:08;17.17;;;6.73;;
25559;SDS011;13450;49.374;8.584;2022-12-17T02:44:52;13.20;;;5.57;;
25559;SDS011;13450;49.374;8.584;2022-12-17T02:47:36;14.80;;;4.30;;
25559;SDS011;13450;49.374;8.584;2022-12-17T02:50:21;17.40;;;6.67;;
25559;SDS011;13450;49.374;8.584;2022-12-17T02:53:05;18.87;;;6.80;;
25559;SDS011;13450;49.374;8.584;2022-12-17T02:55:49;24.03;;;7.33;;
25559;SDS011;13450;49.374;8.584;2022-12-17T02:58:33;14.83;;;6.33;;
25559;SDS011;13450;49.374;8.584;2022-12-17T03:01:19;16.60;;;5.70;;
25559;SDS011;13450;49.374;8.584;2022-12-17T03:04:03;24.93;;;7.37;;
25559;SDS011;13450;49.374;8.584;2022-12-17T03:06:47;15.57;;;6.00;;
25559;SDS011;13450;49.374;8.584;2022-12-17T03:09:31;13.70;;;5.73;;
25559;SDS011;13450;49.374;8.584;2022-12-17T03:12:17;16.67;;;5.50;;
25559;SDS011;13450;49.374;8.584;2022-12-17T03:15:01;19.17;;;6.03;;
25559;SDS011;13450;49.374;8.584;2022-12-17T03:17:45;17.43;;;6.27;;
25559;SDS011;13450;49.374;8.584;2022-12-17T03:20:29;13.70;;;5.90;;
25559;SDS011;13450;49.374;8.584;2022-12-17T03:23:13;14.33;;;5.60;;
25559;SDS011;13450;49.374;8.584;2022-12-17T03:26:00;18.93;;;6.27;;
25559;SDS011;13450;49.374;8.584;2022-12-17T03:28:46;14.17;;;5.30;;
25559;SDS011;13450;49.374;8.584;2022-12-17T03:31:30;12.50;;;5.03;;
25559;SDS011;13450;49.374;8.584;2022-12-17T03:34:15;13.10;;;5.23;;
25559;SDS011;13450;49.374;8.584;2022-12-17T03:36:59;18.77;;;6.50;;
25559;SDS011;13450;49.374;8.584;2022-12-17T03:39:45;15.23;;;6.13;;
25559;SDS011;13450;49.374;8.584;2022-12-17T03:42:28;12.67;;;5.47;;
25559;SDS011;13450;49.374;8.584;2022-12-17T03:45:15;17.03;;;6.17;;
25559;SDS011;13450;49.374;8.584;2022-12-17T03:48:06;17.40;;;6.30;;
25559;SDS011;13450;49.374;8.584;2022-12-17T03:50:52;21.10;;;7.77;;
25559;SDS011;13450;49.374;8.584;2022-12-17T03:53:37;14.53;;;5.13;;
25559;SDS011;13450;49.374;8.584;2022-12-17T03:56:21;15.60;;;4.27;;
25559;SDS011;13450;49.374;8.584;2022-12-17T03:59:05;18.00;;;6.23;;
25559;SDS011;13450;49.374;8.584;2022-12-17T04:01:49;14.37;;;5.90;;
25559;SDS011;13450;49.374;8.584;2022-12-17T04:04:32;14.33;;;4.73;;
25559;SDS011;13450;49.374;8.584;2022-12-17T04:07:16;17.87;;;6.20;;
25559;SDS011;13450;49.374;8.584;2022-12-17T04:10:00;9.23;;;4.13;;
25559;SDS011;13450;49.374;8.584;2022-12-17T04:12:44;12.87;;;5.03;;
25559;SDS011;13450;49.374;8.584;2022-12-17T04:15:28;11.43;;;5.10;;
25559;SDS011;13450;49.374;8.584;2022-12-17T04:18:14;11.50;;;5.07;;
25559;SDS011;13450;49.374;8.584;2022-12-17T04:21:00;16.33;;;6.27;;
25559;SDS011;13450;49.374;8.584;2022-12-17T04:23:44;12.47;;;4.90;;
25559;SDS011;13450;49.374;8.584;2022-12-17T04:26:28;13.80;;;6.43;;
25559;SDS011;13450;49.374;8.584;2022-12-17T04:29:13;12.93;;;5.60;;
25559;SDS011;13450;49.374;8.584;2022-12-17T04:31:57;21.90;;;7.63;;
25559;SDS011;13450;49.374;8.584;2022-12-17T04:34:41;13.43;;;5.17;;
25559;SDS011;13450;49.374;8.584;2022-12-17T04:37:27;14.13;;;5.80;;
25559;SDS011;13450;49.374;8.584;2022-12-17T04:40:11;17.00;;;5.77;;
25559;SDS011;13450;49.374;8.584;2022-12-17T04:42:55;15.00;;;6.03;;
25559;SDS011;13450;49.374;8.584;2022-12-17T04:45:39;14.73;;;6.53;;
25559;SDS011;13450;49.374;8.584;2022-12-17T04:48:23;14.73;;;6.57;;
25559;SDS011;13450;49.374;8.584;2022-12-17T04:51:07;18.87;;;6.70;;
25559;SDS011;13450;49.374;8.584;2022-12-17T04:53:51;15.63;;;6.60;;
25559;SDS011;13450;49.374;8.584;2022-12-17T04:56:35;12.90;;;5.57;;
25559;SDS011;13450;49.374;8.584;2022-12-17T04:59:19;16.63;;;6.60;;
25559;SDS011;13450;49.374;8.584;2022-12-17T05:02:05;15.43;;;6.40;;
25559;SDS011;13450;49.374;8.584;2022-12-17T05:04:49;14.60;;;5.90;;
25559;SDS011;13450;49.374;8.584;2022-12-17T05:07:33;15.97;;;6.17;;
25559;SDS011;13450;49.374;8.584;2022-12-17T05:10:17;12.53;;;5.17;;
25559;SDS011;13450;49.374;8.584;2022-12-17T05:13:01;12.20;;;5.13;;
25559;SDS011;13450;49.374;8.584;2022-12-17T05:15:48;13.43;;;5.43;;
25559;SDS011;13450;49.374;8.584;2022-12-17T05:18:37;13.23;;;6.30;;
25559;SDS011;13450;49.374;8.584;2022-12-17T05:21:21;10.07;;;5.27;;
25559;SDS011;13450;49.374;8.584;2022-12-17T05:24:05;18.10;;;7.57;;
25559;SDS011;13450;49.374;8.584;2022-12-17T05:26:49;21.67;;;6.20;;
25559;SDS011;13450;49.374;8.584;2022-12-17T05:29:33;15.20;;;5.90;;
25559;SDS011;13450;49.374;8.584;2022-12-17T05:32:17;12.80;;;6.07;;
25559;SDS011;13450;49.374;8.584;2022-12-17T05:35:02;18.50;;;6.70;;
25559;SDS011;13450;49.374;8.584;2022-12-17T05:37:46;16.70;;;6.60;;
25559;SDS011;13450;49.374;8.584;2022-12-17T05:40:30;11.97;;;5.70;;
25559;SDS011;13450;49.374;8.584;2022-12-17T05:43:14;20.40;;;6.10;;
25559;SDS011;13450;49.374;8.584;2022-12-17T05:46:01;16.47;;;5.67;;
25559;SDS011;13450;49.374;8.584;2022-12-17T05:48:45;19.63;;;5.33;;
25559;SDS011;13450;49.374;8.584;2022-12-17T05:51:29;14.63;;;5.23;;
25559;SDS011;13450;49.374;8.584;2022-12-17T05:54:30;15.97;;;6.77;;
25559;SDS011;13450;49.374;8.584;2022-12-17T05:57:14;27.30;;;6.77;;
25559;SDS011;13450;49.374;8.584;2022-12-17T05:59:58;15.27;;;5.67;;
25559;SDS011;13450;49.374;8.584;2022-12-17T06:02:42;16.20;;;6.53;;
25559;SDS011;13450;49.374;8.584;2022-12-17T06:05:28;15.40;;;6.13;;
25559;SDS011;13450;49.374;8.584;2022-12-17T06:08:12;9.27;;;4.53;;
25559;SDS011;13450;49.374;8.584;2022-12-17T06:10:58;13.00;;;5.03;;
25559;SDS011;13450;49.374;8.584;2022-12-17T06:13:43;11.80;;;6.60;;
25559;SDS011;13450;49.374;8.584;2022-12-17T06:16:27;16.00;;;6.27;;
25559;SDS011;13450;49.374;8.584;2022-12-17T06:19:11;14.47;;;5.80;;
25559;SDS011;13450;49.374;8.584;2022-12-17T06:21:55;14.97;;;5.43;;
25559;SDS011;13450;49.374;8.584;2022-12-17T06:24:42;11.43;;;5.20;;
25559;SDS011;13450;49.374;8.584;2022-12-17T06:27:26;19.40;;;6.57;;
25559;SDS011;13450;49.374;8.584;2022-12-17T06:30:09;20.90;;;6.07;;
25559;SDS011;13450;49.374;8.584;2022-12-17T06:33:01;17.17;;;6.97;;
25559;SDS011;13450;49.374;8.584;2022-12-17T06:35:46;24.33;;;5.57;;
25559;SDS011;13450;49.374;8.584;2022-12-17T06:38:30;14.57;;;5.90;;
25559;SDS011;13450;49.374;8.584;2022-12-17T06:41:14;11.80;;;5.87;;
25559;SDS011;13450;49.374;8.584;2022-12-17T06:43:57;22.17;;;6.53;;
25559;SDS011;13450;49.374;8.584;2022-12-17T06:46:44;15.63;;;6.17;;
25559;SDS011;13450;49.374;8.584;2022-12-17T06:49:28;14.40;;;5.47;;
25559;SDS011;13450;49.374;8.584;2022-12-17T06:52:11;15.57;;;6.10;;
25559;SDS011;13450;49.374;8.584;2022-12-17T06:54:55;15.53;;;6.23;;
25559;SDS011;13450;49.374;8.584;2022-12-17T06:57:39;14.07;;;5.87;;
25559;SDS011;13450;49.374;8.584;2022-12-17T07:00:23;21.63;;;6.63;;
25559;SDS011;13450;49.374;8.584;2022-12-17T07:03:09;18.33;;;7.07;;
25559;SDS011;13450;49.374;8.584;2022-12-17T07:05:54;18.27;;;5.53;;
25559;SDS011;13450;49.374;8.584;2022-12-17T07:08:38;17.37;;;6.00;;
25559;SDS011;13450;49.374;8.584;2022-12-17T07:11:22;21.10;;;6.63;;
25559;SDS011;13450;49.374;8.584;2022-12-17T07:14:06;19.07;;;6.70;;
25559;SDS011;13450;49.374;8.584;2022-12-17T07:16:50;22.83;;;7.53;;
25559;SDS011;13450;49.374;8.584;2022-12-17T07:19:33;15.83;;;6.20;;
25559;SDS011;13450;49.374;8.584;2022-12-17T07:22:17;15.73;;;6.57;;
25559;SDS011;13450;49.374;8.584;2022-12-17T07:25:02;21.80;;;6.13;;
25559;SDS011;13450;49.374;8.584;2022-12-17T07:27:53;22.40;;;8.40;;
25559;SDS011;13450;49.374;8.584;2022-12-17T07:30:38;23.93;;;7.27;;
25559;SDS011;13450;49.374;8.584;2022-12-17T07:33:22;24.30;;;8.60;;
25559;SDS011;13450;49.374;8.584;2022-12-17T07:36:06;19.17;;;7.70;;
25559;SDS011;13450;49.374;8.584;2022-12-17T07:38:50;20.53;;;8.07;;
25559;SDS011;13450;49.374;8.584;2022-12-17T07:41:34;20.00;;;6.43;;
25559;SDS011;13450;49.374;8.584;2022-12-17T07:44:18;24.73;;;9.40;;
25559;SDS011;13450;49.374;8.584;2022-12-17T07:47:02;23.00;;;9.03;;
25559;SDS011;13450;49.374;8.584;2022-12-17T07:49:46;19.13;;;7.83;;
25559;SDS011;13450;49.374;8.584;2022-12-17T07:52:30;15.60;;;6.97;;
25559;SDS011;13450;49.374;8.584;2022-12-17T07:55:14;19.57;;;6.93;;
25559;SDS011;13450;49.374;8.584;2022-12-17T07:57:59;15.30;;;6.40;;
25559;SDS011;13450;49.374;8.584;2022-12-17T08:00:44;15.33;;;6.40;;
25559;SDS011;13450;49.374;8.584;2022-12-17T08:03:28;14.97;;;6.67;;
25559;SDS011;13450;49.374;8.584;2022-12-17T08:06:31;18.70;;;7.17;;
25559;SDS011;13450;49.374;8.584;2022-12-17T08:09:15;16.70;;;7.23;;
25559;SDS011;13450;49.374;8.584;2022-12-17T08:12:16;17.43;;;6.20;;
25559;SDS011;13450;49.374;8.584;2022-12-17T08:15:00;13.90;;;5.83;;
25559;SDS011;13450;49.374;8.584;2022-12-17T08:17:44;13.17;;;6.13;;
25559;SDS011;13450;49.374;8.584;2022-12-17T08:20:28;11.87;;;5.33;;
25559;SDS011;13450;49.374;8.584;2022-12-17T08:23:12;18.50;;;7.43;;
25559;SDS011;13450;49.374;8.584;2022-12-17T08:25:56;19.20;;;7.30;;
25559;SDS011;13450;49.374;8.584;2022-12-17T08:28:39;21.17;;;8.70;;
25559;SDS011;13450;49.374;8.584;2022-12-17T08:31:26;19.23;;;7.57;;
25559;SDS011;13450;49.374;8.584;2022-12-17T08:34:10;18.70;;;7.40;;
25559;SDS011;13450;49.374;8.584;2022-12-17T08:36:54;21.00;;;6.77;;
25559;SDS011;13450;49.374;8.584;2022-12-17T08:39:38;17.20;;;6.80;;
25559;SDS011;13450;49.374;8.584;2022-12-17T08:42:24;22.43;;;8.13;;
25559;SDS011;13450;49.374;8.584;2022-12-17T08:45:09;19.07;;;7.30;;
25559;SDS011;13450;49.374;8.584;2022-12-17T08:48:00;25.03;;;8.27;;
25559;SDS011;13450;49.374;8.584;2022-12-17T08:50:53;22.60;;;8.50;;
25559;SDS011;13450;49.374;8.584;2022-12-17T08:53:37;26.30;;;9.33;;
25559;SDS011;13450;49.374;8.584;2022-12-17T08:56:21;33.40;;;8.77;;
25559;SDS011;13450;49.374;8.584;2022-12-17T08:59:05;31.07;;;8.20;;
25559;SDS011;13450;49.374;8.584;2022-12-17T09:01:49;24.67;;;7.80;;
25559;SDS011;13450;49.374;8.584;2022-12-17T09:04:33;21.23;;;7.73;;
25559;SDS011;13450;49.374;8.584;2022-12-17T09:07:17;27.10;;;8.20;;
25559;SDS011;13450;49.374;8.584;2022-12-17T09:10:01;29.73;;;9.30;;
25559;SDS011;13450;49.374;8.584;2022-12-17T09:12:45;36.37;;;10.70;;
25559;SDS011;13450;49.374;8.584;2022-12-17T09:15:31;27.73;;;9.67;;
25559;SDS011;13450;49.374;8.584;2022-12-17T09:18:19;27.10;;;8.77;;
25559;SDS011;13450;49.374;8.584;2022-12-17T09:21:05;23.27;;;7.40;;
25559;SDS011;13450;49.374;8.584;2022-12-17T09:23:50;23.07;;;7.07;;
25559;SDS011;13450;49.374;8.584;2022-12-17T09:26:34;26.00;;;9.47;;
25559;SDS011;13450;49.374;8.584;2022-12-17T09:29:18;27.77;;;7.47;;
25559;SDS011;13450;49.374;8.584;2022-12-17T09:32:02;33.08;;;8.73;;
25559;SDS011;13450;49.374;8.584;2022-12-17T09:34:46;24.30;;;8.20;;
25559;SDS011;13450;49.374;8.584;2022-12-17T09:37:30;25.53;;;7.47;;
25559;SDS011;13450;49.374;8.584;2022-12-17T09:40:23;22.57;;;7.70;;
25559;SDS011;13450;49.374;8.584;2022-12-17T09:43:25;22.80;;;7.77;;
25559;SDS011;13450;49.374;8.584;2022-12-17T09:46:28;17.87;;;7.10;;
25559;SDS011;13450;49.374;8.584;2022-12-17T09:49:23;24.50;;;8.02;;
25559;SDS011;13450;49.374;8.584;2022-12-17T09:55:29;21.50;;;7.10;;
25559;SDS011;13450;49.374;8.584;2022-12-17T09:58:20;28.00;;;8.50;;
25559;SDS011;13450;49.374;8.584;2022-12-17T10:04:03;28.17;;;9.13;;
25559;SDS011;13450;49.374;8.584;2022-12-17T10:06:53;28.10;;;10.15;;
25559;SDS011;13450;49.374;8.584;2022-12-17T10:09:37;23.73;;;8.77;;
25559;SDS011;13450;49.374;8.584;2022-12-17T10:12:24;25.55;;;9.75;;
25559;SDS011;13450;49.374;8.584;2022-12-17T10:15:14;27.97;;;10.57;;
25559;SDS011;13450;49.374;8.584;2022-12-17T10:18:05;34.40;;;11.95;;
25559;SDS011;13450;49.374;8.584;2022-12-17T10:20:58;23.42;;;9.20;;
25559;SDS011;13450;49.374;8.584;2022-12-17T10:23:47;24.13;;;8.73;;
25559;SDS011;13450;49.374;8.584;2022-12-17T10:26:31;27.13;;;8.30;;
25559;SDS011;13450;49.374;8.584;2022-12-17T10:29:24;22.23;;;8.35;;
25559;SDS011;13450;49.374;8.584;2022-12-17T10:34:59;39.58;;;13.55;;
25559;SDS011;13450;49.374;8.584;2022-12-17T10:37:49;42.47;;;15.55;;
25559;SDS011;13450;49.374;8.584;2022-12-17T10:40:34;26.55;;;10.98;;
25559;SDS011;13450;49.374;8.584;2022-12-17T10:43:25;29.35;;;9.75;;
25559;SDS011;13450;49.374;8.584;2022-12-17T10:46:10;34.27;;;12.73;;
25559;SDS011;13450;49.374;8.584;2022-12-17T10:49:10;36.40;;;10.27;;
25559;SDS011;13450;49.374;8.584;2022-12-17T10:51:57;28.35;;;12.02;;
25559;SDS011;13450;49.374;8.584;2022-12-17T10:54:52;27.98;;;10.35;;
25559;SDS011;13450;49.374;8.584;2022-12-17T10:57:38;35.63;;;13.60;;
25559;SDS011;13450;49.374;8.584;2022-12-17T11:03:22;90.18;;;22.48;;
25559;SDS011;13450;49.374;8.584;2022-12-17T11:06:12;38.28;;;10.63;;
25559;SDS011;13450;49.374;8.584;2022-12-17T11:08:59;31.38;;;10.50;;
25559;SDS011;13450;49.374;8.584;2022-12-17T11:14:43;35.38;;;11.55;;
25559;SDS011;13450;49.374;8.584;2022-12-17T11:17:37;32.65;;;11.27;;
25559;SDS011;13450;49.374;8.584;2022-12-17T11:20:45;33.80;;;9.55;;
25559;SDS011;13450;49.374;8.584;2022-12-17T11:23:33;38.92;;;10.45;;
25559;SDS011;13450;49.374;8.584;2022-12-17T11:26:20;37.30;;;12.05;;
25559;SDS011;13450;49.374;8.584;2022-12-17T11:29:06;31.45;;;10.40;;
25559;SDS011;13450;49.374;8.584;2022-12-17T11:32:08;29.50;;;10.00;;
25559;SDS011;13450;49.374;8.584;2022-12-17T11:35:13;31.00;;;10.70;;
25559;SDS011;13450;49.374;8.584;2022-12-17T11:40:58;30.15;;;9.50;;
25559;SDS011;13450;49.374;8.584;2022-12-17T11:43:57;35.30;;;10.63;;
25559;SDS011;13450;49.374;8.584;2022-12-17T11:50:11;26.42;;;9.90;;
25559;SDS011;13450;49.374;8.584;2022-12-17T11:53:05;31.70;;;10.45;;
25559;SDS011;13450;49.374;8.584;2022-12-17T11:56:40;22.52;;;8.65;;
25559;SDS011;13450;49.374;8.584;2022-12-17T11:59:27;36.13;;;9.90;;
25559;SDS011;13450;49.374;8.584;2022-12-17T12:02:24;34.78;;;10.25;;
25559;SDS011;13450;49.374;8.584;2022-12-17T12:05:41;28.77;;;9.00;;
25559;SDS011;13450;49.374;8.584;2022-12-17T12:08:46;32.42;;;10.23;;
25559;SDS011;13450;49.374;8.584;2022-12-17T12:12:03;27.95;;;8.93;;
25559;SDS011;13450;49.374;8.584;2022-12-17T12:31:04;26.13;;;9.30;;
25559;SDS011;13450;49.374;8.584;2022-12-17T12:33:52;33.15;;;12.25;;
25559;SDS011;13450;49.374;8.584;2022-12-17T12:36:40;32.00;;;9.50;;
25559;SDS011;13450;49.374;8.584;2022-12-17T12:39:29;23.25;;;7.90;;
25559;SDS011;13450;49.374;8.584;2022-12-17T12:42:48;26.25;;;7.80;;
25559;SDS011;13450;49.374;8.584;2022-12-17T12:45:44;30.35;;;8.32;;
25559;SDS011;13450;49.374;8.584;2022-12-17T12:48:56;28.83;;;8.70;;
25559;SDS011;13450;49.374;8.584;2022-12-17T12:51:47;34.65;;;10.52;;
25559;SDS011;13450;49.374;8.584;2022-12-17T12:57:29;32.70;;;9.20;;
25559;SDS011;13450;49.374;8.584;2022-12-17T13:00:33;27.92;;;9.75;;
25559;SDS011;13450;49.374;8.584;2022-12-17T13:03:34;30.42;;;8.43;;
25559;SDS011;13450;49.374;8.584;2022-12-17T13:14:21;30.63;;;7.60;;
25559;SDS011;13450;49.374;8.584;2022-12-17T13:29:58;39.22;;;11.30;;
25559;SDS011;13450;49.374;8.584;2022-12-17T13:38:19;35.85;;;10.00;;
25559;SDS011;13450;49.374;8.584;2022-12-17T13:43:48;31.88;;;9.07;;
25559;SDS011;13450;49.374;8.584;2022-12-17T13:48:52;32.17;;;9.57;;
25559;SDS011;13450;49.374;8.584;2022-12-17T13:51:19;49.33;;;11.65;;
25559;SDS011;13450;49.374;8.584;2022-12-17T13:53:52;39.15;;;12.13;;
25559;SDS011;13450;49.374;8.584;2022-12-17T13:56:26;49.13;;;12.65;;
25559;SDS011;13450;49.374;8.584;2022-12-17T13:58:54;37.28;;;10.40;;
25559;SDS011;13450;49.374;8.584;2022-12-17T14:01:21;45.70;;;12.13;;
25559;SDS011;13450;49.374;8.584;2022-12-17T14:03:57;44.10;;;11.90;;
25559;SDS011;13450;49.374;8.584;2022-12-17T14:06:24;40.75;;;12.40;;
25559;SDS011;13450;49.374;8.584;2022-12-17T14:08:54;43.47;;;12.70;;
25559;SDS011;13450;49.374;8.584;2022-12-17T14:11:21;45.00;;;12.48;;
25559;SDS011;13450;49.374;8.584;2022-12-17T14:14:19;38.72;;;11.98;;
25559;SDS011;13450;49.374;8.584;2022-12-17T14:16:53;50.22;;;12.15;;
25559;SDS011;13450;49.374;8.584;2022-12-17T14:19:21;44.58;;;12.45;;
25559;SDS011;13450;49.374;8.584;2022-12-17T14:21:48;44.78;;;12.65;;
25559;SDS011;13450;49.374;8.584;2022-12-17T14:24:13;47.20;;;12.77;;
25559;SDS011;13450;49.374;8.584;2022-12-17T14:26:53;41.92;;;11.07;;
25559;SDS011;13450;49.374;8.584;2022-12-17T14:29:21;43.53;;;11.60;;
25559;SDS011;13450;49.374;8.584;2022-12-17T14:31:52;51.80;;;13.70;;
25559;SDS011;13450;49.374;8.584;2022-12-17T14:34:38;46.10;;;11.82;;
25559;SDS011;13450;49.374;8.584;2022-12-17T14:37:12;60.72;;;15.93;;
25559;SDS011;13450;49.374;8.584;2022-12-17T14:39:43;49.53;;;13.35;;
25559;SDS011;13450;49.374;8.584;2022-12-17T14:42:15;43.25;;;11.70;;
25559;SDS011;13450;49.374;8.584;2022-12-17T14:45:03;44.42;;;12.55;;
25559;SDS011;13450;49.374;8.584;2022-12-17T14:47:32;43.50;;;12.10;;
25559;SDS011;13450;49.374;8.584;2022-12-17T14:52:36;43.92;;;11.93;;
25559;SDS011;13450;49.374;8.584;2022-12-17T14:57:53;44.23;;;12.13;;
25559;SDS011;13450;49.374;8.584;2022-12-17T15:00:30;44.38;;;11.88;;
25559;SDS011;13450;49.374;8.584;2022-12-17T15:02:55;44.20;;;12.07;;
25559;SDS011;13450;49.374;8.584;2022-12-17T15:05:20;43.60;;;12.93;;
25559;SDS011;13450;49.374;8.584;2022-12-17T15:07:46;41.42;;;13.40;;
25559;SDS011;13450;49.374;8.584;2022-12-17T15:10:17;34.60;;;10.98;;
25559;SDS011;13450;49.374;8.584;2022-12-17T15:12:44;39.03;;;11.65;;
25559;SDS011;13450;49.374;8.584;2022-12-17T15:15:15;39.83;;;10.70;;
25559;SDS011;13450;49.374;8.584;2022-12-17T15:17:45;37.83;;;11.02;;
25559;SDS011;13450;49.374;8.584;2022-12-17T15:20:17;31.05;;;9.82;;
25559;SDS011;13450;49.374;8.584;2022-12-17T15:22:44;41.70;;;10.40;;
25559;SDS011;13450;49.374;8.584;2022-12-17T15:25:13;30.33;;;9.55;;
25559;SDS011;13450;49.374;8.584;2022-12-17T15:27:40;33.17;;;9.30;;
25559;SDS011;13450;49.374;8.584;2022-12-17T15:30:06;37.08;;;9.43;;
25559;SDS011;13450;49.374;8.584;2022-12-17T15:32:33;31.08;;;8.93;;
25559;SDS011;13450;49.374;8.584;2022-12-17T15:35:01;38.42;;;9.95;;
25559;SDS011;13450;49.374;8.584;2022-12-17T15:37:26;31.80;;;8.57;;
25559;SDS011;13450;49.374;8.584;2022-12-17T15:39:52;33.40;;;9.93;;
25559;SDS011;13450;49.374;8.584;2022-12-17T15:42:17;34.15;;;9.35;;
25559;SDS011;13450;49.374;8.584;2022-12-17T15:45:01;36.97;;;10.57;;
25559;SDS011;13450;49.374;8.584;2022-12-17T15:47:26;30.48;;;9.57;;
25559;SDS011;13450;49.374;8.584;2022-12-17T15:49:51;33.97;;;10.68;;
25559;SDS011;13450;49.374;8.584;2022-12-17T15:52:17;33.80;;;9.47;;
25559;SDS011;13450;49.374;8.584;2022-12-17T15:54:42;36.03;;;10.03;;
25559;SDS011;13450;49.374;8.584;2022-12-17T15:57:07;27.63;;;9.70;;
25559;SDS011;13450;49.374;8.584;2022-12-17T15:59:33;32.42;;;10.15;;
25559;SDS011;13450;49.374;8.584;2022-12-17T16:02:01;34.53;;;9.18;;
25559;SDS011;13450;49.374;8.584;2022-12-17T16:04:26;33.88;;;9.52;;
25559;SDS011;13450;49.374;8.584;2022-12-17T16:06:54;30.27;;;9.15;;
25559;SDS011;13450;49.374;8.584;2022-12-17T16:09:20;28.17;;;8.45;;
25559;SDS011;13450;49.374;8.584;2022-12-17T16:11:54;37.75;;;10.25;;
25559;SDS011;13450;49.374;8.584;2022-12-17T16:14:20;34.28;;;9.25;;
25559;SDS011;13450;49.374;8.584;2022-12-17T16:16:46;38.75;;;10.27;;
25559;SDS011;13450;49.374;8.584;2022-12-17T16:19:12;30.35;;;8.63;;
25559;SDS011;13450;49.374;8.584;2022-12-17T16:21:39;27.88;;;9.05;;
25559;SDS011;13450;49.374;8.584;2022-12-17T16:24:05;30.80;;;9.80;;
25559;SDS011;13450;49.374;8.584;2022-12-17T16:26:31;36.08;;;9.35;;
25559;SDS011;13450;49.374;8.584;2022-12-17T16:28:59;36.83;;;10.88;;
25559;SDS011;13450;49.374;8.584;2022-12-17T16:31:24;25.02;;;8.38;;
25559;SDS011;13450;49.374;8.584;2022-12-17T16:33:50;23.80;;;8.18;;
25559;SDS011;13450;49.374;8.584;2022-12-17T16:36:16;36.97;;;9.68;;
25559;SDS011;13450;49.374;8.584;2022-12-17T16:38:45;29.80;;;9.55;;
25559;SDS011;13450;49.374;8.584;2022-12-17T16:41:12;31.25;;;9.40;;
25559;SDS011;13450;49.374;8.584;2022-12-17T16:43:39;30.20;;;8.30;;
25559;SDS011;13450;49.374;8.584;2022-12-17T16:46:05;29.55;;;8.32;;
25559;SDS011;13450;49.374;8.584;2022-12-17T16:48:48;34.33;;;8.67;;
25559;SDS011;13450;49.374;8.584;2022-12-17T16:51:17;40.03;;;10.82;;
25559;SDS011;13450;49.374;8.584;2022-12-17T16:53:44;35.15;;;8.98;;
25559;SDS011;13450;49.374;8.584;2022-12-17T16:56:20;39.00;;;9.83;;
25559;SDS011;13450;49.374;8.584;2022-12-17T16:58:51;27.87;;;8.67;;
25559;SDS011;13450;49.374;8.584;2022-12-17T17:01:19;29.90;;;9.80;;
25559;SDS011;13450;49.374;8.584;2022-12-17T17:03:46;31.60;;;9.77;;
25559;SDS011;13450;49.374;8.584;2022-12-17T17:06:12;36.43;;;9.73;;
25559;SDS011;13450;49.374;8.584;2022-12-17T17:08:37;33.33;;;9.87;;
25559;SDS011;13450;49.374;8.584;2022-12-17T17:11:10;38.63;;;10.30;;
25559;SDS011;13450;49.374;8.584;2022-12-17T17:13:36;32.35;;;9.52;;
25559;SDS011;13450;49.374;8.584;2022-12-17T17:16:03;40.27;;;10.30;;
25559;SDS011;13450;49.374;8.584;2022-12-17T17:18:29;31.00;;;9.63;;
25559;SDS011;13450;49.374;8.584;2022-12-17T17:21:21;33.90;;;10.93;;
25559;SDS011;13450;49.374;8.584;2022-12-17T17:23:50;35.57;;;10.53;;
25559;SDS011;13450;49.374;8.584;2022-12-17T17:26:18;51.45;;;13.43;;